Laird, Colorado
Current Conditions -  °F | °C
As of 3:35 AM on Monday 22 Dec 2014 (Local Time) from K2V5 Reporting Station
Clear Clear  
Wind Chill: 28°   Ceiling: Unl
Heat Index: 36°   Visibility: 10mi
Dew Point: 30°   Wind: 12mph
Humidity: 80%   Direction: 280°W
Pressure: 29.64"   Gusts: 17mph
Location:  40.1407°N, 102.218°W
Report Text: K2V5 221035Z AUTO 28010G15KT 10SM CLR 02/M01 A2964 RMK AO2 T00211010
Loading
Personal Weather Stations






























Interactive Weather Map New forecast layout! Learn more

10-Day Weather Forecast

Advertisements
Track Severe Weather on mobile